sensor_id;sensor_type;location;lat;lon;timestamp;P1;durP1;ratioP1;P2;durP2;ratioP2
58196;SDS011;43999;51.660;5.616;2022-11-15T00:01:56;30.77;;;26.42;;
58196;SDS011;43999;51.660;5.616;2022-11-15T00:04:42;36.45;;;25.38;;
58196;SDS011;43999;51.660;5.616;2022-11-15T00:07:28;38.78;;;25.85;;
58196;SDS011;43999;51.660;5.616;2022-11-15T00:10:34;31.45;;;23.75;;
58196;SDS011;43999;51.660;5.616;2022-11-15T00:13:20;37.78;;;24.55;;
58196;SDS011;43999;51.660;5.616;2022-11-15T00:16:05;37.00;;;25.02;;
58196;SDS011;43999;51.660;5.616;2022-11-15T00:18:53;30.10;;;23.25;;
58196;SDS011;43999;51.660;5.616;2022-11-15T00:21:39;30.55;;;24.38;;
58196;SDS011;43999;51.660;5.616;2022-11-15T00:24:25;35.47;;;25.80;;
58196;SDS011;43999;51.660;5.616;2022-11-15T00:27:10;32.80;;;24.35;;
58196;SDS011;43999;51.660;5.616;2022-11-15T00:29:56;32.72;;;24.60;;
58196;SDS011;43999;51.660;5.616;2022-11-15T00:32:42;36.40;;;24.02;;
58196;SDS011;43999;51.660;5.616;2022-11-15T00:35:37;29.98;;;23.58;;
58196;SDS011;43999;51.660;5.616;2022-11-15T00:38:22;28.45;;;23.02;;
58196;SDS011;43999;51.660;5.616;2022-11-15T00:41:08;25.75;;;22.92;;
58196;SDS011;43999;51.660;5.616;2022-11-15T00:43:54;28.92;;;22.63;;
58196;SDS011;43999;51.660;5.616;2022-11-15T00:46:39;27.05;;;22.27;;
58196;SDS011;43999;51.660;5.616;2022-11-15T00:49:25;27.90;;;21.63;;
58196;SDS011;43999;51.660;5.616;2022-11-15T00:52:11;27.25;;;21.17;;
58196;SDS011;43999;51.660;5.616;2022-11-15T00:54:57;31.38;;;21.50;;
58196;SDS011;43999;51.660;5.616;2022-11-15T00:57:43;26.08;;;21.75;;
58196;SDS011;43999;51.660;5.616;2022-11-15T01:00:30;27.30;;;21.42;;
58196;SDS011;43999;51.660;5.616;2022-11-15T01:03:16;26.55;;;21.58;;
58196;SDS011;43999;51.660;5.616;2022-11-15T01:06:02;26.67;;;22.73;;
58196;SDS011;43999;51.660;5.616;2022-11-15T01:08:49;26.65;;;23.10;;
58196;SDS011;43999;51.660;5.616;2022-11-15T01:11:34;20.30;;;18.23;;
58196;SDS011;43999;51.660;5.616;2022-11-15T01:14:20;23.08;;;19.73;;
58196;SDS011;43999;51.660;5.616;2022-11-15T01:17:09;25.25;;;21.10;;
58196;SDS011;43999;51.660;5.616;2022-11-15T01:19:55;21.77;;;19.25;;
58196;SDS011;43999;51.660;5.616;2022-11-15T01:22:41;23.88;;;19.95;;
58196;SDS011;43999;51.660;5.616;2022-11-15T01:25:26;23.60;;;20.30;;
58196;SDS011;43999;51.660;5.616;2022-11-15T01:28:12;24.17;;;19.45;;
58196;SDS011;43999;51.660;5.616;2022-11-15T01:30:59;27.88;;;19.92;;
58196;SDS011;43999;51.660;5.616;2022-11-15T01:33:47;22.50;;;19.17;;
58196;SDS011;43999;51.660;5.616;2022-11-15T01:36:34;24.35;;;19.38;;
58196;SDS011;43999;51.660;5.616;2022-11-15T01:39:19;24.13;;;19.48;;
58196;SDS011;43999;51.660;5.616;2022-11-15T01:42:04;24.17;;;20.10;;
58196;SDS011;43999;51.660;5.616;2022-11-15T01:44:50;22.77;;;20.45;;
58196;SDS011;43999;51.660;5.616;2022-11-15T01:47:40;22.48;;;19.90;;
58196;SDS011;43999;51.660;5.616;2022-11-15T01:50:36;22.55;;;18.88;;
58196;SDS011;43999;51.660;5.616;2022-11-15T01:53:22;23.75;;;19.73;;
58196;SDS011;43999;51.660;5.616;2022-11-15T01:56:14;23.40;;;19.08;;
58196;SDS011;43999;51.660;5.616;2022-11-15T01:59:07;21.90;;;18.40;;
58196;SDS011;43999;51.660;5.616;2022-11-15T02:01:55;20.77;;;18.45;;
58196;SDS011;43999;51.660;5.616;2022-11-15T02:04:45;21.90;;;19.70;;
58196;SDS011;43999;51.660;5.616;2022-11-15T02:07:33;23.15;;;20.25;;
58196;SDS011;43999;51.660;5.616;2022-11-15T02:10:21;25.73;;;20.42;;
58196;SDS011;43999;51.660;5.616;2022-11-15T02:13:09;21.17;;;19.00;;
58196;SDS011;43999;51.660;5.616;2022-11-15T02:16:02;25.08;;;19.90;;
58196;SDS011;43999;51.660;5.616;2022-11-15T02:22:22;20.30;;;18.10;;
58196;SDS011;43999;51.660;5.616;2022-11-15T02:25:40;21.08;;;18.25;;
58196;SDS011;43999;51.660;5.616;2022-11-15T02:32:40;20.83;;;18.33;;
58196;SDS011;43999;51.660;5.616;2022-11-15T02:38:33;24.40;;;21.02;;
58196;SDS011;43999;51.660;5.616;2022-11-15T02:42:02;21.27;;;19.05;;
58196;SDS011;43999;51.660;5.616;2022-11-15T02:49:04;23.48;;;20.20;;
58196;SDS011;43999;51.660;5.616;2022-11-15T02:51:50;22.98;;;19.52;;
58196;SDS011;43999;51.660;5.616;2022-11-15T02:54:39;22.35;;;20.02;;
58196;SDS011;43999;51.660;5.616;2022-11-15T03:01:04;23.17;;;19.73;;
58196;SDS011;43999;51.660;5.616;2022-11-15T03:14:23;25.02;;;20.88;;
58196;SDS011;43999;51.660;5.616;2022-11-15T03:17:28;22.42;;;18.73;;
58196;SDS011;43999;51.660;5.616;2022-11-15T03:20:25;24.38;;;21.10;;
58196;SDS011;43999;51.660;5.616;2022-11-15T03:23:15;23.13;;;20.13;;
58196;SDS011;43999;51.660;5.616;2022-11-15T03:26:03;22.77;;;20.00;;
58196;SDS011;43999;51.660;5.616;2022-11-15T03:28:58;21.77;;;19.48;;
58196;SDS011;43999;51.660;5.616;2022-11-15T03:31:57;24.58;;;19.73;;
58196;SDS011;43999;51.660;5.616;2022-11-15T03:35:23;23.15;;;20.73;;
58196;SDS011;43999;51.660;5.616;2022-11-15T03:38:22;23.53;;;20.37;;
58196;SDS011;43999;51.660;5.616;2022-11-15T03:41:23;22.08;;;19.17;;
58196;SDS011;43999;51.660;5.616;2022-11-15T03:44:31;23.48;;;20.65;;
58196;SDS011;43999;51.660;5.616;2022-11-15T03:47:49;23.10;;;20.00;;
58196;SDS011;43999;51.660;5.616;2022-11-15T03:50:50;22.52;;;20.13;;
58196;SDS011;43999;51.660;5.616;2022-11-15T03:53:38;23.05;;;20.65;;
58196;SDS011;43999;51.660;5.616;2022-11-15T03:56:25;23.30;;;20.13;;
58196;SDS011;43999;51.660;5.616;2022-11-15T03:59:11;23.83;;;19.90;;
58196;SDS011;43999;51.660;5.616;2022-11-15T04:01:56;25.80;;;21.77;;
58196;SDS011;43999;51.660;5.616;2022-11-15T04:04:42;23.38;;;21.13;;
58196;SDS011;43999;51.660;5.616;2022-11-15T04:07:28;24.92;;;21.20;;
58196;SDS011;43999;51.660;5.616;2022-11-15T04:10:14;24.75;;;19.27;;
58196;SDS011;43999;51.660;5.616;2022-11-15T04:13:02;29.15;;;21.65;;
58196;SDS011;43999;51.660;5.616;2022-11-15T04:15:48;31.65;;;22.70;;
58196;SDS011;43999;51.660;5.616;2022-11-15T04:18:34;24.98;;;21.42;;
58196;SDS011;43999;51.660;5.616;2022-11-15T04:21:19;24.77;;;22.10;;
58196;SDS011;43999;51.660;5.616;2022-11-15T04:24:24;26.25;;;23.38;;
58196;SDS011;43999;51.660;5.616;2022-11-15T04:27:09;25.27;;;21.00;;
58196;SDS011;43999;51.660;5.616;2022-11-15T04:29:57;26.25;;;22.50;;
58196;SDS011;43999;51.660;5.616;2022-11-15T04:32:43;27.00;;;22.08;;
58196;SDS011;43999;51.660;5.616;2022-11-15T04:35:29;26.63;;;22.35;;
58196;SDS011;43999;51.660;5.616;2022-11-15T04:38:15;29.42;;;24.20;;
58196;SDS011;43999;51.660;5.616;2022-11-15T04:41:00;29.35;;;22.63;;
58196;SDS011;43999;51.660;5.616;2022-11-15T04:43:47;29.20;;;24.58;;
58196;SDS011;43999;51.660;5.616;2022-11-15T04:46:33;30.55;;;23.67;;
58196;SDS011;43999;51.660;5.616;2022-11-15T04:49:18;28.58;;;22.23;;
58196;SDS011;43999;51.660;5.616;2022-11-15T04:52:04;25.95;;;22.95;;
58196;SDS011;43999;51.660;5.616;2022-11-15T04:54:50;26.45;;;21.88;;
58196;SDS011;43999;51.660;5.616;2022-11-15T04:57:36;30.10;;;24.77;;
58196;SDS011;43999;51.660;5.616;2022-11-15T05:00:22;31.05;;;23.17;;
58196;SDS011;43999;51.660;5.616;2022-11-15T05:03:09;27.88;;;23.50;;
58196;SDS011;43999;51.660;5.616;2022-11-15T05:06:13;29.73;;;22.90;;
58196;SDS011;43999;51.660;5.616;2022-11-15T05:09:03;28.55;;;21.30;;
58196;SDS011;43999;51.660;5.616;2022-11-15T05:11:49;28.38;;;23.20;;
58196;SDS011;43999;51.660;5.616;2022-11-15T05:14:35;33.78;;;24.83;;
58196;SDS011;43999;51.660;5.616;2022-11-15T05:17:21;26.48;;;21.30;;
58196;SDS011;43999;51.660;5.616;2022-11-15T05:20:07;30.40;;;23.30;;
58196;SDS011;43999;51.660;5.616;2022-11-15T05:22:53;32.73;;;25.67;;
58196;SDS011;43999;51.660;5.616;2022-11-15T05:25:40;32.40;;;24.87;;
58196;SDS011;43999;51.660;5.616;2022-11-15T05:28:26;35.30;;;26.52;;
58196;SDS011;43999;51.660;5.616;2022-11-15T05:31:15;33.55;;;26.17;;
58196;SDS011;43999;51.660;5.616;2022-11-15T05:34:01;35.63;;;25.33;;
58196;SDS011;43999;51.660;5.616;2022-11-15T05:36:50;30.58;;;23.73;;
58196;SDS011;43999;51.660;5.616;2022-11-15T05:39:36;34.40;;;27.27;;
58196;SDS011;43999;51.660;5.616;2022-11-15T05:42:21;30.88;;;26.08;;
58196;SDS011;43999;51.660;5.616;2022-11-15T05:45:07;28.95;;;23.15;;
58196;SDS011;43999;51.660;5.616;2022-11-15T05:47:54;29.13;;;23.40;;
58196;SDS011;43999;51.660;5.616;2022-11-15T05:50:46;30.30;;;24.38;;
58196;SDS011;43999;51.660;5.616;2022-11-15T05:53:32;29.90;;;24.33;;
58196;SDS011;43999;51.660;5.616;2022-11-15T05:56:20;31.70;;;26.25;;
58196;SDS011;43999;51.660;5.616;2022-11-15T05:59:06;27.25;;;23.63;;
58196;SDS011;43999;51.660;5.616;2022-11-15T06:01:55;30.88;;;23.73;;
58196;SDS011;43999;51.660;5.616;2022-11-15T06:04:41;28.88;;;22.95;;
58196;SDS011;43999;51.660;5.616;2022-11-15T06:07:29;30.05;;;23.38;;
58196;SDS011;43999;51.660;5.616;2022-11-15T06:10:16;25.17;;;22.10;;
58196;SDS011;43999;51.660;5.616;2022-11-15T06:13:02;33.47;;;25.05;;
58196;SDS011;43999;51.660;5.616;2022-11-15T06:15:50;29.98;;;23.38;;
58196;SDS011;43999;51.660;5.616;2022-11-15T06:18:36;30.02;;;24.77;;
58196;SDS011;43999;51.660;5.616;2022-11-15T06:21:22;28.75;;;23.15;;
58196;SDS011;43999;51.660;5.616;2022-11-15T06:24:08;26.77;;;23.58;;
58196;SDS011;43999;51.660;5.616;2022-11-15T06:26:54;24.58;;;21.27;;
58196;SDS011;43999;51.660;5.616;2022-11-15T06:29:40;25.60;;;21.92;;
58196;SDS011;43999;51.660;5.616;2022-11-15T06:32:25;25.42;;;22.10;;
58196;SDS011;43999;51.660;5.616;2022-11-15T06:35:12;28.55;;;23.50;;
58196;SDS011;43999;51.660;5.616;2022-11-15T06:38:06;27.38;;;23.40;;
58196;SDS011;43999;51.660;5.616;2022-11-15T06:41:00;24.27;;;20.60;;
58196;SDS011;43999;51.660;5.616;2022-11-15T06:43:53;26.42;;;21.98;;
58196;SDS011;43999;51.660;5.616;2022-11-15T06:46:39;25.40;;;21.92;;
58196;SDS011;43999;51.660;5.616;2022-11-15T06:49:24;31.08;;;22.60;;
58196;SDS011;43999;51.660;5.616;2022-11-15T06:52:10;28.42;;;21.80;;
58196;SDS011;43999;51.660;5.616;2022-11-15T06:54:56;28.52;;;23.00;;
58196;SDS011;43999;51.660;5.616;2022-11-15T06:57:46;27.88;;;22.10;;
58196;SDS011;43999;51.660;5.616;2022-11-15T07:00:37;24.80;;;20.70;;
58196;SDS011;43999;51.660;5.616;2022-11-15T07:03:23;26.55;;;20.35;;
58196;SDS011;43999;51.660;5.616;2022-11-15T07:06:09;23.65;;;21.13;;
58196;SDS011;43999;51.660;5.616;2022-11-15T07:08:55;26.35;;;20.90;;
58196;SDS011;43999;51.660;5.616;2022-11-15T07:11:40;24.00;;;20.38;;
58196;SDS011;43999;51.660;5.616;2022-11-15T07:14:26;26.15;;;22.52;;
58196;SDS011;43999;51.660;5.616;2022-11-15T07:17:12;25.00;;;20.73;;
58196;SDS011;43999;51.660;5.616;2022-11-15T07:19:58;25.95;;;20.40;;
58196;SDS011;43999;51.660;5.616;2022-11-15T07:22:45;28.92;;;21.73;;
58196;SDS011;43999;51.660;5.616;2022-11-15T07:25:31;27.08;;;22.17;;
58196;SDS011;43999;51.660;5.616;2022-11-15T07:28:17;25.48;;;20.52;;
58196;SDS011;43999;51.660;5.616;2022-11-15T07:31:03;23.42;;;20.50;;
58196;SDS011;43999;51.660;5.616;2022-11-15T07:33:52;29.38;;;21.48;;
58196;SDS011;43999;51.660;5.616;2022-11-15T07:36:38;23.20;;;19.67;;
58196;SDS011;43999;51.660;5.616;2022-11-15T07:39:23;23.55;;;20.33;;
58196;SDS011;43999;51.660;5.616;2022-11-15T07:42:09;22.75;;;20.23;;
58196;SDS011;43999;51.660;5.616;2022-11-15T07:45:28;22.08;;;17.55;;
58196;SDS011;43999;51.660;5.616;2022-11-15T07:48:14;22.45;;;19.08;;
58196;SDS011;43999;51.660;5.616;2022-11-15T07:51:00;23.10;;;20.67;;
58196;SDS011;43999;51.660;5.616;2022-11-15T07:53:45;24.80;;;20.50;;
58196;SDS011;43999;51.660;5.616;2022-11-15T07:56:31;24.02;;;18.58;;
58196;SDS011;43999;51.660;5.616;2022-11-15T07:59:17;23.65;;;18.70;;
58196;SDS011;43999;51.660;5.616;2022-11-15T08:02:04;21.77;;;17.73;;
58196;SDS011;43999;51.660;5.616;2022-11-15T08:04:50;20.80;;;18.55;;
58196;SDS011;43999;51.660;5.616;2022-11-15T08:07:36;24.27;;;19.55;;
58196;SDS011;43999;51.660;5.616;2022-11-15T08:10:22;22.50;;;17.50;;
58196;SDS011;43999;51.660;5.616;2022-11-15T08:13:10;24.88;;;18.23;;
58196;SDS011;43999;51.660;5.616;2022-11-15T08:16:01;20.33;;;17.23;;
58196;SDS011;43999;51.660;5.616;2022-11-15T08:18:50;22.77;;;18.98;;
58196;SDS011;43999;51.660;5.616;2022-11-15T08:21:35;24.23;;;17.73;;
58196;SDS011;43999;51.660;5.616;2022-11-15T08:24:22;21.23;;;17.80;;
58196;SDS011;43999;51.660;5.616;2022-11-15T08:27:07;19.02;;;16.92;;
58196;SDS011;43999;51.660;5.616;2022-11-15T08:30:03;17.35;;;14.35;;
58196;SDS011;43999;51.660;5.616;2022-11-15T08:32:49;20.17;;;15.33;;
58196;SDS011;43999;51.660;5.616;2022-11-15T08:38:23;15.07;;;12.45;;
58196;SDS011;43999;51.660;5.616;2022-11-15T08:41:11;16.80;;;13.00;;
58196;SDS011;43999;51.660;5.616;2022-11-15T08:44:09;13.25;;;11.93;;
58196;SDS011;43999;51.660;5.616;2022-11-15T08:46:55;14.38;;;12.38;;
58196;SDS011;43999;51.660;5.616;2022-11-15T08:49:40;14.43;;;12.25;;
58196;SDS011;43999;51.660;5.616;2022-11-15T08:52:26;15.93;;;11.80;;
58196;SDS011;43999;51.660;5.616;2022-11-15T08:55:12;17.60;;;12.02;;
58196;SDS011;43999;51.660;5.616;2022-11-15T08:58:01;16.10;;;13.15;;
58196;SDS011;43999;51.660;5.616;2022-11-15T09:00:47;12.68;;;10.48;;
58196;SDS011;43999;51.660;5.616;2022-11-15T09:03:32;14.05;;;10.48;;
58196;SDS011;43999;51.660;5.616;2022-11-15T09:06:18;11.10;;;9.88;;
58196;SDS011;43999;51.660;5.616;2022-11-15T09:09:04;11.85;;;10.45;;
58196;SDS011;43999;51.660;5.616;2022-11-15T09:11:50;11.50;;;10.32;;
58196;SDS011;43999;51.660;5.616;2022-11-15T09:14:35;11.18;;;9.93;;
58196;SDS011;43999;51.660;5.616;2022-11-15T09:17:21;10.00;;;8.93;;
58196;SDS011;43999;51.660;5.616;2022-11-15T09:20:09;11.73;;;9.52;;
58196;SDS011;43999;51.660;5.616;2022-11-15T09:22:58;10.65;;;8.30;;
58196;SDS011;43999;51.660;5.616;2022-11-15T09:25:49;11.30;;;8.48;;
58196;SDS011;43999;51.660;5.616;2022-11-15T09:28:36;12.70;;;8.23;;
58196;SDS011;43999;51.660;5.616;2022-11-15T09:31:22;10.32;;;9.05;;
58196;SDS011;43999;51.660;5.616;2022-11-15T09:34:09;10.52;;;9.27;;
58196;SDS011;43999;51.660;5.616;2022-11-15T09:36:56;12.07;;;9.50;;
58196;SDS011;43999;51.660;5.616;2022-11-15T09:39:41;9.65;;;7.95;;
58196;SDS011;43999;51.660;5.616;2022-11-15T09:50:08;7.35;;;6.25;;
58196;SDS011;43999;51.660;5.616;2022-11-15T09:52:55;9.05;;;6.85;;
58196;SDS011;43999;51.660;5.616;2022-11-15T09:55:24;7.90;;;6.85;;
58196;SDS011;43999;51.660;5.616;2022-11-15T09:58:23;6.40;;;5.80;;
58196;SDS011;43999;51.660;5.616;2022-11-15T10:01:23;6.47;;;5.70;;
58196;SDS011;43999;51.660;5.616;2022-11-15T10:04:23;8.00;;;6.28;;
58196;SDS011;43999;51.660;5.616;2022-11-15T10:10:20;7.70;;;4.60;;
58196;SDS011;43999;51.660;5.616;2022-11-15T10:13:35;5.00;;;4.28;;
58196;SDS011;43999;51.660;5.616;2022-11-15T10:24:43;6.75;;;4.97;;
58196;SDS011;43999;51.660;5.616;2022-11-15T10:27:15;5.43;;;4.28;;
58196;SDS011;43999;51.660;5.616;2022-11-15T10:29:47;4.90;;;3.45;;
58196;SDS011;43999;51.660;5.616;2022-11-15T10:32:18;6.10;;;3.60;;
58196;SDS011;43999;51.660;5.616;2022-11-15T10:34:48;6.72;;;3.40;;
58196;SDS011;43999;51.660;5.616;2022-11-15T10:37:30;6.10;;;3.40;;
58196;SDS011;43999;51.660;5.616;2022-11-15T10:40:20;5.75;;;3.92;;
58196;SDS011;43999;51.660;5.616;2022-11-15T10:43:03;4.07;;;2.72;;
58196;SDS011;43999;51.660;5.616;2022-11-15T10:45:37;4.00;;;3.13;;
58196;SDS011;43999;51.660;5.616;2022-11-15T10:50:41;3.55;;;2.35;;
58196;SDS011;43999;51.660;5.616;2022-11-15T10:53:29;5.32;;;3.08;;
58196;SDS011;43999;51.660;5.616;2022-11-15T10:56:12;5.32;;;2.65;;
58196;SDS011;43999;51.660;5.616;2022-11-15T10:58:42;7.15;;;3.05;;
58196;SDS011;43999;51.660;5.616;2022-11-15T11:01:22;4.65;;;2.58;;
58196;SDS011;43999;51.660;5.616;2022-11-15T11:04:00;4.00;;;2.40;;
58196;SDS011;43999;51.660;5.616;2022-11-15T11:06:48;4.07;;;2.65;;
58196;SDS011;43999;51.660;5.616;2022-11-15T11:12:06;3.38;;;2.60;;
58196;SDS011;43999;51.660;5.616;2022-11-15T11:14:38;4.65;;;2.53;;
58196;SDS011;43999;51.660;5.616;2022-11-15T11:20:41;4.07;;;2.42;;
58196;SDS011;43999;51.660;5.616;2022-11-15T11:26:35;5.40;;;2.70;;
58196;SDS011;43999;51.660;5.616;2022-11-15T11:29:36;5.63;;;2.50;;
58196;SDS011;43999;51.660;5.616;2022-11-15T11:33:12;7.32;;;3.33;;
58196;SDS011;43999;51.660;5.616;2022-11-15T11:35:59;4.63;;;2.60;;
58196;SDS011;43999;51.660;5.616;2022-11-15T11:39:29;4.07;;;2.17;;
58196;SDS011;43999;51.660;5.616;2022-11-15T11:50:49;12.80;;;2.53;;
58196;SDS011;43999;51.660;5.616;2022-11-15T11:53:23;4.88;;;2.50;;
58196;SDS011;43999;51.660;5.616;2022-11-15T11:56:19;4.97;;;2.25;;
58196;SDS011;43999;51.660;5.616;2022-11-15T11:59:21;4.45;;;2.45;;
58196;SDS011;43999;51.660;5.616;2022-11-15T12:02:15;4.25;;;2.05;;
58196;SDS011;43999;51.660;5.616;2022-11-15T12:05:10;5.90;;;2.20;;
58196;SDS011;43999;51.660;5.616;2022-11-15T12:13:58;7.80;;;2.72;;
58196;SDS011;43999;51.660;5.616;2022-11-15T12:16:34;4.78;;;2.25;;
58196;SDS011;43999;51.660;5.616;2022-11-15T12:19:09;4.10;;;2.30;;
58196;SDS011;43999;51.660;5.616;2022-11-15T12:30:11;4.65;;;2.70;;
58196;SDS011;43999;51.660;5.616;2022-11-15T12:32:52;4.97;;;2.35;;
58196;SDS011;43999;51.660;5.616;2022-11-15T12:35:40;5.63;;;2.30;;
58196;SDS011;43999;51.660;5.616;2022-11-15T12:38:09;3.33;;;1.83;;
58196;SDS011;43999;51.660;5.616;2022-11-15T12:41:20;6.38;;;2.53;;
58196;SDS011;43999;51.660;5.616;2022-11-15T12:44:01;2.65;;;1.67;;
58196;SDS011;43999;51.660;5.616;2022-11-15T12:49:11;3.80;;;2.50;;
58196;SDS011;43999;51.660;5.616;2022-11-15T13:02:39;5.63;;;2.33;;
58196;SDS011;43999;51.660;5.616;2022-11-15T13:17:43;8.18;;;2.22;;
58196;SDS011;43999;51.660;5.616;2022-11-15T13:22:43;5.13;;;2.13;;
58196;SDS011;43999;51.660;5.616;2022-11-15T13:28:27;2.95;;;1.83;;
58196;SDS011;43999;51.660;5.616;2022-11-15T13:31:21;4.32;;;1.80;;
58196;SDS011;43999;51.660;5.616;2022-11-15T13:39:47;4.25;;;1.73;;
58196;SDS011;43999;51.660;5.616;2022-11-15T13:42:16;3.13;;;2.10;;
58196;SDS011;43999;51.660;5.616;2022-11-15T13:44:56;6.32;;;2.08;;
58196;SDS011;43999;51.660;5.616;2022-11-15T13:47:31;8.20;;;3.03;;
58196;SDS011;43999;51.660;5.616;2022-11-15T13:49:58;5.88;;;2.50;;
58196;SDS011;43999;51.660;5.616;2022-11-15T13:52:36;3.80;;;1.77;;
58196;SDS011;43999;51.660;5.616;2022-11-15T13:55:13;5.45;;;2.60;;
58196;SDS011;43999;51.660;5.616;2022-11-15T13:57:49;8.18;;;2.67;;
58196;SDS011;43999;51.660;5.616;2022-11-15T14:00:42;5.15;;;2.10;;
58196;SDS011;43999;51.660;5.616;2022-11-15T14:08:56;4.40;;;1.98;;
58196;SDS011;43999;51.660;5.616;2022-11-15T14:11:55;3.70;;;2.22;;
58196;SDS011;43999;51.660;5.616;2022-11-15T14:14:24;5.30;;;2.50;;
58196;SDS011;43999;51.660;5.616;2022-11-15T14:16:56;3.97;;;2.35;;
58196;SDS011;43999;51.660;5.616;2022-11-15T14:28:33;4.38;;;1.73;;
58196;SDS011;43999;51.660;5.616;2022-11-15T14:30:54;3.80;;;1.95;;
58196;SDS011;43999;51.660;5.616;2022-11-15T14:36:10;2.80;;;1.95;;
58196;SDS011;43999;51.660;5.616;2022-11-15T14:38:44;7.72;;;2.63;;
58196;SDS011;43999;51.660;5.616;2022-11-15T14:41:22;6.65;;;2.08;;
58196;SDS011;43999;51.660;5.616;2022-11-15T14:43:52;6.47;;;1.88;;
58196;SDS011;43999;51.660;5.616;2022-11-15T14:46:20;6.50;;;2.38;;
58196;SDS011;43999;51.660;5.616;2022-11-15T14:48:47;6.45;;;1.80;;
58196;SDS011;43999;51.660;5.616;2022-11-15T14:51:17;4.70;;;1.88;;
58196;SDS011;43999;51.660;5.616;2022-11-15T14:53:46;7.32;;;1.98;;
58196;SDS011;43999;51.660;5.616;2022-11-15T14:56:14;6.15;;;2.58;;
58196;SDS011;43999;51.660;5.616;2022-11-15T14:58:42;3.35;;;1.88;;
58196;SDS011;43999;51.660;5.616;2022-11-15T15:01:14;5.40;;;2.80;;
58196;SDS011;43999;51.660;5.616;2022-11-15T15:03:49;5.78;;;3.13;;
58196;SDS011;43999;51.660;5.616;2022-11-15T15:06:23;4.05;;;2.13;;
58196;SDS011;43999;51.660;5.616;2022-11-15T15:08:51;3.13;;;2.53;;
58196;SDS011;43999;51.660;5.616;2022-11-15T15:11:28;4.70;;;2.38;;
58196;SDS011;43999;51.660;5.616;2022-11-15T15:13:58;6.20;;;2.90;;
58196;SDS011;43999;51.660;5.616;2022-11-15T15:16:28;7.18;;;2.47;;
58196;SDS011;43999;51.660;5.616;2022-11-15T15:18:55;4.28;;;2.63;;
58196;SDS011;43999;51.660;5.616;2022-11-15T15:21:23;7.78;;;2.40;;
58196;SDS011;43999;51.660;5.616;2022-11-15T15:24:01;5.18;;;2.88;;
58196;SDS011;43999;51.660;5.616;2022-11-15T15:26:29;4.00;;;2.38;;
58196;SDS011;43999;51.660;5.616;2022-11-15T15:29:01;7.88;;;3.15;;
58196;SDS011;43999;51.660;5.616;2022-11-15T15:31:28;4.75;;;2.58;;
58196;SDS011;43999;51.660;5.616;2022-11-15T15:33:56;4.25;;;1.50;;
58196;SDS011;43999;51.660;5.616;2022-11-15T15:36:23;5.35;;;1.95;;
58196;SDS011;43999;51.660;5.616;2022-11-15T15:38:51;3.60;;;1.77;;
58196;SDS011;43999;51.660;5.616;2022-11-15T15:41:18;2.80;;;1.83;;
58196;SDS011;43999;51.660;5.616;2022-11-15T15:43:46;7.90;;;2.47;;
58196;SDS011;43999;51.660;5.616;2022-11-15T15:46:14;6.70;;;2.00;;
58196;SDS011;43999;51.660;5.616;2022-11-15T15:48:44;8.18;;;2.20;;
58196;SDS011;43999;51.660;5.616;2022-11-15T15:51:12;3.88;;;2.00;;
58196;SDS011;43999;51.660;5.616;2022-11-15T15:53:46;4.07;;;2.40;;
58196;SDS011;43999;51.660;5.616;2022-11-15T15:56:14;7.50;;;3.45;;
58196;SDS011;43999;51.660;5.616;2022-11-15T15:58:42;6.65;;;3.00;;
58196;SDS011;43999;51.660;5.616;2022-11-15T16:01:09;4.07;;;1.73;;
58196;SDS011;43999;51.660;5.616;2022-11-15T16:03:36;4.90;;;2.50;;
58196;SDS011;43999;51.660;5.616;2022-11-15T16:06:03;4.68;;;2.58;;
58196;SDS011;43999;51.660;5.616;2022-11-15T16:08:31;4.80;;;1.75;;
58196;SDS011;43999;51.660;5.616;2022-11-15T16:11:18;3.40;;;2.03;;
58196;SDS011;43999;51.660;5.616;2022-11-15T16:13:45;6.63;;;2.25;;
58196;SDS011;43999;51.660;5.616;2022-11-15T16:16:13;7.13;;;2.95;;
58196;SDS011;43999;51.660;5.616;2022-11-15T16:18:40;3.40;;;2.25;;
58196;SDS011;43999;51.660;5.616;2022-11-15T16:21:08;4.35;;;2.58;;
58196;SDS011;43999;51.660;5.616;2022-11-15T16:23:35;5.05;;;2.83;;
58196;SDS011;43999;51.660;5.616;2022-11-15T16:26:06;8.20;;;3.28;;
58196;SDS011;43999;51.660;5.616;2022-11-15T16:28:51;5.05;;;2.22;;
58196;SDS011;43999;51.660;5.616;2022-11-15T16:31:19;6.35;;;2.50;;
58196;SDS011;43999;51.660;5.616;2022-11-15T16:33:49;5.53;;;2.40;;
58196;SDS011;43999;51.660;5.616;2022-11-15T16:36:24;6.47;;;3.30;;
58196;SDS011;43999;51.660;5.616;2022-11-15T16:38:56;5.07;;;2.80;;
58196;SDS011;43999;51.660;5.616;2022-11-15T16:41:25;7.80;;;3.17;;
58196;SDS011;43999;51.660;5.616;2022-11-15T16:43:53;6.22;;;3.03;;
58196;SDS011;43999;51.660;5.616;2022-11-15T16:46:24;7.32;;;3.40;;
58196;SDS011;43999;51.660;5.616;2022-11-15T16:48:53;7.55;;;3.00;;
58196;SDS011;43999;51.660;5.616;2022-11-15T16:51:21;4.40;;;2.90;;
58196;SDS011;43999;51.660;5.616;2022-11-15T16:53:49;5.18;;;3.35;;
58196;SDS011;43999;51.660;5.616;2022-11-15T16:58:56;4.38;;;2.60;;
58196;SDS011;43999;51.660;5.616;2022-11-15T17:01:29;5.70;;;3.58;;
58196;SDS011;43999;51.660;5.616;2022-11-15T17:04:01;5.90;;;3.95;;
58196;SDS011;43999;51.660;5.616;2022-11-15T17:06:38;4.22;;;3.22;;
58196;SDS011;43999;51.660;5.616;2022-11-15T17:09:16;5.40;;;3.45;;
58196;SDS011;43999;51.660;5.616;2022-11-15T17:11:51;4.07;;;3.28;;
58196;SDS011;43999;51.660;5.616;2022-11-15T17:14:19;5.47;;;3.88;;
58196;SDS011;43999;51.660;5.616;2022-11-15T17:16:47;7.43;;;3.92;;
58196;SDS011;43999;51.660;5.616;2022-11-15T17:19:14;6.25;;;3.50;;
58196;SDS011;43999;51.660;5.616;2022-11-15T17:21:45;6.90;;;3.95;;
58196;SDS011;43999;51.660;5.616;2022-11-15T17:24:17;4.97;;;3.88;;
58196;SDS011;43999;51.660;5.616;2022-11-15T17:26:46;5.05;;;3.53;;
58196;SDS011;43999;51.660;5.616;2022-11-15T17:29:13;5.13;;;3.95;;
58196;SDS011;43999;51.660;5.616;2022-11-15T17:31:40;5.72;;;3.30;;
58196;SDS011;43999;51.660;5.616;2022-11-15T17:34:07;4.88;;;3.80;;
58196;SDS011;43999;51.660;5.616;2022-11-15T17:36:35;4.20;;;3.50;;
58196;SDS011;43999;51.660;5.616;2022-11-15T17:39:03;7.72;;;3.97;;
58196;SDS011;43999;51.660;5.616;2022-11-15T17:41:30;5.15;;;4.63;;
58196;SDS011;43999;51.660;5.616;2022-11-15T17:43:58;5.05;;;3.72;;
58196;SDS011;43999;51.660;5.616;2022-11-15T17:46:28;8.50;;;4.75;;
58196;SDS011;43999;51.660;5.616;2022-11-15T17:48:56;5.65;;;5.03;;
58196;SDS011;43999;51.660;5.616;2022-11-15T17:51:23;7.97;;;4.75;;
58196;SDS011;43999;51.660;5.616;2022-11-15T17:53:51;7.05;;;4.75;;
58196;SDS011;43999;51.660;5.616;2022-11-15T17:56:19;6.97;;;4.72;;
58196;SDS011;43999;51.660;5.616;2022-11-15T17:58:50;8.13;;;4.85;;
58196;SDS011;43999;51.660;5.616;2022-11-15T18:01:25;6.22;;;5.30;;
58196;SDS011;43999;51.660;5.616;2022-11-15T18:03:59;6.20;;;4.93;;
58196;SDS011;43999;51.660;5.616;2022-11-15T18:06:33;6.28;;;4.72;;
58196;SDS011;43999;51.660;5.616;2022-11-15T18:09:02;7.03;;;5.55;;
58196;SDS011;43999;51.660;5.616;2022-11-15T18:11:32;5.85;;;5.32;;
58196;SDS011;43999;51.660;5.616;2022-11-15T18:14:07;5.85;;;5.25;;
58196;SDS011;43999;51.660;5.616;2022-11-15T18:16:39;6.50;;;5.22;;
58196;SDS011;43999;51.660;5.616;2022-11-15T18:19:07;5.72;;;5.13;;
58196;SDS011;43999;51.660;5.616;2022-11-15T18:21:43;7.78;;;5.05;;
58196;SDS011;43999;51.660;5.616;2022-11-15T18:24:28;7.05;;;5.63;;
58196;SDS011;43999;51.660;5.616;2022-11-15T18:27:06;6.93;;;6.32;;
58196;SDS011;43999;51.660;5.616;2022-11-15T18:29:34;6.80;;;6.10;;